createdAt,value
2023-05-15T00:01:38.778Z,37.47
2023-05-15T00:04:05.604Z,37.67
2023-05-15T00:06:32.591Z,36.60
2023-05-15T00:08:59.408Z,38.50
2023-05-15T00:11:27.913Z,38.10
2023-05-15T00:13:54.969Z,38.95
2023-05-15T04:24:26.377Z,34.65
2023-05-15T04:26:53.204Z,31.85
2023-05-15T04:29:20.060Z,34.92
2023-05-15T04:31:46.888Z,35.50
2023-05-15T04:34:13.803Z,33.75
2023-05-15T04:36:42.903Z,35.22
2023-05-15T04:39:10.054Z,33.97
2023-05-15T04:41:36.854Z,34.03
2023-05-15T04:44:03.788Z,33.25
2023-05-15T04:46:30.889Z,33.45
2023-05-15T04:48:57.691Z,33.22
2023-05-15T04:51:24.536Z,32.03
2023-05-15T04:53:51.314Z,33.10
2023-05-15T04:56:18.112Z,33.15
2023-05-15T04:58:44.962Z,31.58
2023-05-15T05:01:11.776Z,32.28
2023-05-15T05:03:38.675Z,33.92
2023-05-15T05:06:05.654Z,34.42
2023-05-15T05:08:32.553Z,33.47
2023-05-15T05:10:59.368Z,34.92
2023-05-15T05:13:26.238Z,34.17
2023-05-15T05:15:53.093Z,34.65
2023-05-15T05:18:19.980Z,35.67
2023-05-15T05:20:46.973Z,34.33
2023-05-15T05:23:18.421Z,33.75
2023-05-15T05:25:45.201Z,35.95
2023-05-15T05:28:12.026Z,34.45
2023-05-15T05:30:38.857Z,34.22
2023-05-15T05:33:06.468Z,36.05
2023-05-15T05:35:33.378Z,34.22
2023-05-15T05:38:01.088Z,32.53
2023-05-15T05:40:27.843Z,29.63
2023-05-15T05:42:54.896Z,28.65
2023-05-15T05:45:21.762Z,30.08
2023-05-15T05:47:48.664Z,29.40
2023-05-15T05:50:15.693Z,31.05
2023-05-15T05:52:42.623Z,27.50
2023-05-15T05:55:10.393Z,27.25
2023-05-15T05:57:37.272Z,28.45
2023-05-15T06:00:08.920Z,27.88
2023-05-15T06:02:37.202Z,27.10
2023-05-15T06:05:04.646Z,28.20
2023-05-15T06:07:31.507Z,25.58
2023-05-15T06:09:58.335Z,25.52
2023-05-15T06:12:25.428Z,26.20
2023-05-15T06:14:52.243Z,26.35
2023-05-15T06:17:19.182Z,27.38
2023-05-15T06:19:46.064Z,27.55
2023-05-15T06:22:12.912Z,27.33
2023-05-15T06:24:39.733Z,26.38
2023-05-15T06:27:06.552Z,28.67
2023-05-15T06:29:33.369Z,27.50
2023-05-15T06:32:00.449Z,29.42
2023-05-15T06:34:27.282Z,28.25
2023-05-15T06:36:54.091Z,28.20
2023-05-15T06:39:20.942Z,27.23
2023-05-15T06:41:47.789Z,28.23
2023-05-15T06:44:14.721Z,28.42
2023-05-15T06:46:41.709Z,29.48
2023-05-15T06:49:08.619Z,25.90
2023-05-15T06:51:35.550Z,27.52
2023-05-15T06:54:02.563Z,26.23
2023-05-15T06:56:29.410Z,26.58
2023-05-15T06:58:56.590Z,26.85
2023-05-15T07:01:23.417Z,27.15
2023-05-15T07:03:50.315Z,27.42
2023-05-15T07:06:17.140Z,27.58
2023-05-15T07:08:43.945Z,26.65
2023-05-15T07:11:10.893Z,24.85
2023-05-15T07:13:37.707Z,24.67
2023-05-15T07:16:04.922Z,23.80
2023-05-15T07:18:31.744Z,24.17
2023-05-15T07:20:58.708Z,30.90
2023-05-15T07:23:25.608Z,25.90
2023-05-15T07:25:55.623Z,23.58
2023-05-15T07:28:22.580Z,23.70
2023-05-15T07:30:49.468Z,23.30
2023-05-15T07:33:19.266Z,22.92
2023-05-15T07:35:46.213Z,22.13
2023-05-15T07:38:13.143Z,21.55
2023-05-15T07:40:40.144Z,21.27
2023-05-15T07:43:06.926Z,21.65
2023-05-15T07:45:33.764Z,20.23
2023-05-15T07:48:14.117Z,19.77
2023-05-15T07:50:41.328Z,21.52
2023-05-15T07:53:08.236Z,19.33
2023-05-15T07:55:35.340Z,19.85
2023-05-15T07:58:02.349Z,18.38
2023-05-15T08:00:29.186Z,17.45
2023-05-15T08:02:56.402Z,16.27
2023-05-15T08:05:23.386Z,16.17
2023-05-15T08:07:50.757Z,16.17
2023-05-15T08:10:17.814Z,16.45
2023-05-15T08:12:46.614Z,15.48
2023-05-15T08:15:13.924Z,13.70
2023-05-15T08:17:41.406Z,21.27
2023-05-15T08:20:08.919Z,14.45
2023-05-15T08:22:35.869Z,14.05
2023-05-15T08:25:03.927Z,13.85
2023-05-15T08:27:30.854Z,13.85
2023-05-15T08:29:57.704Z,13.65
2023-05-15T08:32:24.766Z,12.27
2023-05-15T08:34:51.683Z,11.73
2023-05-15T08:37:18.700Z,11.13
2023-05-15T08:39:47.514Z,11.68
2023-05-15T08:42:19.867Z,11.95
2023-05-15T08:44:47.451Z,11.43
2023-05-15T08:47:19.579Z,11.20
2023-05-15T08:50:15.284Z,10.48
2023-05-15T08:52:43.949Z,9.07
2023-05-15T08:55:11.169Z,9.38
2023-05-15T08:57:38.976Z,9.18
2023-05-15T09:00:09.583Z,9.60
2023-05-15T09:02:37.561Z,10.07
2023-05-15T09:05:06.239Z,9.02
2023-05-15T09:07:33.292Z,9.68
2023-05-15T09:10:01.579Z,9.52
2023-05-15T09:12:28.720Z,9.40
2023-05-15T09:15:21.817Z,8.82
2023-05-15T09:20:32.998Z,9.38
2023-05-15T09:23:02.160Z,9.27
2023-05-15T09:25:33.395Z,8.15
2023-05-15T09:28:01.161Z,9.80
2023-05-15T09:30:28.218Z,9.35
2023-05-15T09:33:01.368Z,9.20
2023-05-15T09:35:38.315Z,8.25
2023-05-15T09:38:10.608Z,9.20
2023-05-15T09:40:39.353Z,9.25
2023-05-15T09:43:06.225Z,8.13
2023-05-15T09:45:33.198Z,8.30
2023-05-15T09:48:04.070Z,8.40
2023-05-15T09:50:36.469Z,9.50
2023-05-15T09:53:03.585Z,10.85
2023-05-15T09:55:37.107Z,8.23
2023-05-15T09:58:15.315Z,8.50
2023-05-15T10:00:48.083Z,8.15
2023-05-15T10:03:18.645Z,8.30
2023-05-15T10:05:45.753Z,6.75
2023-05-15T10:08:13.031Z,6.32
2023-05-15T10:10:40.189Z,7.15
2023-05-15T10:13:08.534Z,6.43
2023-05-15T10:15:36.004Z,6.55
2023-05-15T10:18:04.596Z,5.22
2023-05-15T10:20:35.415Z,6.10
2023-05-15T10:23:05.721Z,7.80
2023-05-15T10:25:45.829Z,4.43
2023-05-15T10:28:14.153Z,4.78
2023-05-15T10:30:43.262Z,3.60
2023-05-15T10:33:13.127Z,3.35
2023-05-15T10:35:40.513Z,3.58
2023-05-15T10:38:07.804Z,3.70
2023-05-15T10:40:37.797Z,3.90
2023-05-15T10:43:06.002Z,4.13
2023-05-15T10:45:33.474Z,2.85
2023-05-15T10:48:03.638Z,3.47
2023-05-15T10:50:30.585Z,3.45
2023-05-15T10:52:57.685Z,4.07
2023-05-15T10:55:24.590Z,4.22
2023-05-15T10:57:51.820Z,4.97
2023-05-15T11:00:31.391Z,4.43
2023-05-15T11:02:59.241Z,3.97
2023-05-15T11:05:26.511Z,3.88
2023-05-15T11:08:25.972Z,5.10
2023-05-15T11:10:53.874Z,5.10
2023-05-15T11:13:21.403Z,5.43
2023-05-15T11:15:49.029Z,4.75
2023-05-15T11:18:16.519Z,4.10
2023-05-15T11:21:03.690Z,5.15
2023-05-15T11:23:39.899Z,5.43
2023-05-15T11:26:06.892Z,5.70
2023-05-15T11:28:43.498Z,4.50
2023-05-15T11:31:10.516Z,4.22
2023-05-15T11:33:39.994Z,4.38
2023-05-15T11:36:07.782Z,3.35
2023-05-15T11:38:42.433Z,2.78
2023-05-15T11:41:21.687Z,3.20
2023-05-15T11:43:48.936Z,3.30
2023-05-15T11:46:16.409Z,4.38
2023-05-15T11:48:44.214Z,4.00
2023-05-15T11:51:21.469Z,3.60
2023-05-15T11:53:52.941Z,4.82
2023-05-15T11:56:24.414Z,4.60
2023-05-15T11:58:54.251Z,3.90
2023-05-15T12:01:21.284Z,4.30
2023-05-15T12:03:49.793Z,5.00
2023-05-15T12:06:45.266Z,4.32
2023-05-15T12:09:19.536Z,4.20
2023-05-15T12:11:53.549Z,4.55
2023-05-15T12:14:30.986Z,5.25
2023-05-15T12:17:04.509Z,5.53
2023-05-15T12:19:31.800Z,5.40
2023-05-15T12:21:58.696Z,5.07
2023-05-15T12:24:27.059Z,4.70
2023-05-15T12:26:55.419Z,3.80
2023-05-15T12:29:24.586Z,5.43
2023-05-15T12:31:54.000Z,4.35
2023-05-15T12:34:21.800Z,4.20
2023-05-15T12:36:48.818Z,4.22
2023-05-15T12:39:15.822Z,3.97
2023-05-15T12:41:45.585Z,4.25
2023-05-15T12:44:17.910Z,3.88
2023-05-15T12:46:46.070Z,3.83
2023-05-15T12:49:12.906Z,3.55
2023-05-15T12:51:43.806Z,4.35
2023-05-15T12:54:18.388Z,4.07
2023-05-15T12:56:46.061Z,3.63
2023-05-15T12:59:12.948Z,4.20
2023-05-15T13:01:44.005Z,3.40
2023-05-15T13:04:11.477Z,4.03
2023-05-15T13:06:46.533Z,4.30
2023-05-15T13:09:14.198Z,5.43
2023-05-15T13:11:46.497Z,4.20
2023-05-15T13:14:17.485Z,4.80
2023-05-15T13:16:47.857Z,5.05
2023-05-15T13:19:15.803Z,4.88
2023-05-15T13:21:44.238Z,4.93
2023-05-15T13:24:11.410Z,5.72
2023-05-15T13:26:38.432Z,5.32
2023-05-15T13:29:05.346Z,5.68
2023-05-15T13:31:32.513Z,5.10
2023-05-15T13:33:59.431Z,4.75
2023-05-15T13:36:26.245Z,5.00
2023-05-15T13:38:53.069Z,4.65
2023-05-15T13:41:19.891Z,4.47
2023-05-15T13:43:49.274Z,4.95
2023-05-15T13:46:16.425Z,4.30
2023-05-15T13:48:43.502Z,3.50
2023-05-15T13:51:10.532Z,3.42
2023-05-15T13:53:37.338Z,3.75
2023-05-15T13:56:04.422Z,4.18
2023-05-15T13:58:31.292Z,4.10
2023-05-15T14:00:58.130Z,4.60
2023-05-15T14:03:25.161Z,4.28
2023-05-15T14:05:52.766Z,5.63
2023-05-15T14:08:19.953Z,4.40
2023-05-15T14:10:46.768Z,5.15
2023-05-15T14:13:13.612Z,5.57
2023-05-15T14:15:40.476Z,4.93
2023-05-15T14:18:07.466Z,5.10
2023-05-15T14:20:34.375Z,4.63
2023-05-15T14:23:01.199Z,5.07
2023-05-15T14:25:28.030Z,3.00
2023-05-15T14:27:54.851Z,3.03
2023-05-15T14:30:22.072Z,3.25
2023-05-15T14:32:49.086Z,3.88
2023-05-15T14:35:16.078Z,3.42
2023-05-15T14:37:43.460Z,3.50
2023-05-15T14:40:11.056Z,3.00
2023-05-15T14:42:37.931Z,3.22
2023-05-15T14:45:05.052Z,3.05
2023-05-15T14:47:32.105Z,2.92
2023-05-15T14:49:58.993Z,3.00
2023-05-15T14:52:25.848Z,3.00
2023-05-15T14:55:05.005Z,4.00
2023-05-15T14:57:35.368Z,3.05
2023-05-15T15:00:02.374Z,3.95
2023-05-15T15:02:29.406Z,4.50
2023-05-15T15:04:57.560Z,4.85
2023-05-15T15:07:38.446Z,5.88
2023-05-15T15:10:06.369Z,5.63
2023-05-15T15:12:33.237Z,5.93
2023-05-15T15:15:00.048Z,5.53
2023-05-15T15:17:26.979Z,6.00
2023-05-15T15:19:53.828Z,5.30
2023-05-15T15:22:20.701Z,6.00
2023-05-15T15:24:47.530Z,3.83
2023-05-15T15:27:16.795Z,4.75
2023-05-15T15:29:43.664Z,4.25
2023-05-15T15:32:10.522Z,4.40
2023-05-15T15:34:37.598Z,4.45
2023-05-15T15:37:04.605Z,5.43
2023-05-15T15:39:32.916Z,4.20
2023-05-15T15:41:59.753Z,6.10
2023-05-15T15:44:26.578Z,5.53
2023-05-15T15:46:53.417Z,6.30
2023-05-15T15:49:20.585Z,6.65
2023-05-15T15:51:47.584Z,6.70
2023-05-15T15:54:14.401Z,7.10
2023-05-15T15:56:42.868Z,6.63
2023-05-15T15:59:09.822Z,6.82
2023-05-15T16:01:39.953Z,8.05
2023-05-15T16:04:07.127Z,7.75
2023-05-15T16:06:34.380Z,8.60
2023-05-15T16:09:01.446Z,7.53
2023-05-15T16:11:29.376Z,7.75
2023-05-15T16:13:56.386Z,6.88
2023-05-15T16:16:23.309Z,6.95
2023-05-15T16:18:50.263Z,7.03
2023-05-15T16:21:17.172Z,6.97
2023-05-15T16:23:44.085Z,7.75
2023-05-15T16:26:11.311Z,7.22
2023-05-15T16:28:38.595Z,6.45
2023-05-15T16:31:05.575Z,6.07
2023-05-15T16:33:35.060Z,6.13
2023-05-15T16:36:03.701Z,6.18
2023-05-15T16:38:30.899Z,5.47
2023-05-15T16:40:57.753Z,5.53
2023-05-15T16:43:24.579Z,5.88
2023-05-15T16:45:51.454Z,4.53
2023-05-15T16:48:22.046Z,4.65
2023-05-15T16:50:48.921Z,4.70
2023-05-15T16:53:15.896Z,4.50
2023-05-15T16:55:43.128Z,3.80
2023-05-15T16:58:10.005Z,4.10
2023-05-15T17:00:36.831Z,3.65
2023-05-15T17:03:05.591Z,3.50
2023-05-15T17:05:33.199Z,3.20
2023-05-15T17:08:00.771Z,3.10
2023-05-15T17:10:28.823Z,2.85
2023-05-15T17:12:55.845Z,2.85
2023-05-15T17:15:26.487Z,3.17
2023-05-15T17:17:53.620Z,3.17
2023-05-15T17:20:20.680Z,2.75
2023-05-15T17:22:47.598Z,2.85
2023-05-15T17:25:14.515Z,2.92
2023-05-15T17:27:41.660Z,3.28
2023-05-15T17:30:12.401Z,2.97
2023-05-15T17:32:39.658Z,2.95
2023-05-15T17:35:08.107Z,2.88
2023-05-15T17:37:35.117Z,2.55
2023-05-15T17:40:02.036Z,2.55
2023-05-15T17:42:28.981Z,2.97
2023-05-15T17:44:56.588Z,2.95
2023-05-15T17:47:23.835Z,2.70
2023-05-15T17:49:50.765Z,3.10
2023-05-15T17:52:17.799Z,2.78
2023-05-15T17:54:44.659Z,3.25
2023-05-15T17:57:11.609Z,3.72
2023-05-15T17:59:38.497Z,3.92
2023-05-15T18:02:08.575Z,4.68
2023-05-15T18:04:35.452Z,4.57
2023-05-15T18:07:02.256Z,5.25
2023-05-15T18:09:29.697Z,6.03
2023-05-15T18:11:56.702Z,5.53
2023-05-15T18:14:24.670Z,5.78
2023-05-15T18:16:51.576Z,6.00
2023-05-15T18:19:19.047Z,5.95
2023-05-15T18:21:46.022Z,6.88
2023-05-15T18:24:12.958Z,6.55
2023-05-15T18:26:39.800Z,6.40
2023-05-15T18:29:06.764Z,7.25
2023-05-15T18:31:33.610Z,7.18
2023-05-15T18:34:01.090Z,7.90
2023-05-15T18:36:29.514Z,7.28
2023-05-15T18:38:56.387Z,7.80
2023-05-15T18:41:23.246Z,6.82
2023-05-15T18:43:50.080Z,6.95
2023-05-15T18:46:17.016Z,6.22
2023-05-15T18:48:43.874Z,5.30
2023-05-15T18:51:10.840Z,5.45
2023-05-15T18:53:37.722Z,4.25
2023-05-15T18:56:04.955Z,3.97
2023-05-15T18:58:31.815Z,5.32
2023-05-15T19:00:58.751Z,4.63
2023-05-15T19:03:25.899Z,4.18
2023-05-15T19:05:52.911Z,4.55
2023-05-15T19:08:19.703Z,4.43
2023-05-15T19:10:50.784Z,4.72
2023-05-15T19:13:19.835Z,4.47
2023-05-15T19:15:53.866Z,4.38
2023-05-15T19:18:20.721Z,4.18
2023-05-15T19:20:52.111Z,4.20
2023-05-15T19:23:20.645Z,4.18
2023-05-15T19:25:47.625Z,3.90
2023-05-15T19:28:15.072Z,3.85
2023-05-15T19:30:45.008Z,2.88
2023-05-15T19:33:12.973Z,3.20
2023-05-15T19:35:41.716Z,2.95
2023-05-15T19:38:08.576Z,3.00
2023-05-15T19:40:36.094Z,3.38
2023-05-15T19:43:02.974Z,2.63
2023-05-15T19:45:30.537Z,2.97
2023-05-15T19:47:57.507Z,3.20
2023-05-15T19:50:24.508Z,3.42
2023-05-15T19:52:51.483Z,3.05
2023-05-15T19:55:18.390Z,2.85
2023-05-15T19:57:45.339Z,2.75
2023-05-15T20:00:12.969Z,3.08
2023-05-15T20:02:41.339Z,2.83
2023-05-15T20:05:08.821Z,3.20
2023-05-15T20:07:35.979Z,3.30
2023-05-15T20:10:03.257Z,2.80
2023-05-15T20:12:30.396Z,2.70
2023-05-15T20:14:57.400Z,2.50
2023-05-15T20:17:24.324Z,3.00
2023-05-15T20:19:53.097Z,2.95
2023-05-15T20:22:20.192Z,2.30
2023-05-15T20:24:48.227Z,2.20
2023-05-15T20:27:15.325Z,2.35
2023-05-15T20:29:42.137Z,1.48
2023-05-15T20:32:09.005Z,1.50
2023-05-15T20:34:36.894Z,1.27
2023-05-15T20:37:03.907Z,1.63
2023-05-15T20:39:31.108Z,1.02
2023-05-15T20:41:57.918Z,1.23
2023-05-15T20:44:24.775Z,1.45
2023-05-15T20:46:51.780Z,1.58
2023-05-15T20:49:18.703Z,0.70
2023-05-15T20:51:48.656Z,0.88
2023-05-15T20:54:16.137Z,0.85
2023-05-15T20:56:43.203Z,0.80
2023-05-15T20:59:10.085Z,0.60
2023-05-15T21:01:37.023Z,0.95
2023-05-15T21:04:03.918Z,1.00
2023-05-15T21:06:31.085Z,0.82
2023-05-15T21:08:57.922Z,0.98
2023-05-15T21:11:25.043Z,0.90
2023-05-15T21:13:51.905Z,1.05
2023-05-15T21:16:18.923Z,0.70
2023-05-15T21:18:45.832Z,0.57
2023-05-15T21:21:12.722Z,0.65
2023-05-15T21:23:39.552Z,0.77
2023-05-15T21:26:06.566Z,0.63
2023-05-15T21:28:33.509Z,0.65
2023-05-15T21:31:07.290Z,0.60
2023-05-15T21:33:35.678Z,0.60
2023-05-15T21:36:03.914Z,1.02
2023-05-15T21:38:31.700Z,0.77
2023-05-15T21:40:59.652Z,1.02
2023-05-15T21:43:26.664Z,0.85
2023-05-15T21:45:59.687Z,0.80
2023-05-15T21:50:58.227Z,1.30
2023-05-15T21:53:25.705Z,0.88
2023-05-15T21:56:00.206Z,1.65
2023-05-15T21:58:27.576Z,1.30
2023-05-15T22:00:54.417Z,1.38
2023-05-15T22:03:21.603Z,1.85
2023-05-15T22:05:50.151Z,1.02
2023-05-15T22:08:17.100Z,1.45
2023-05-15T22:10:44.084Z,2.05
2023-05-15T22:13:11.277Z,2.08
2023-05-15T22:15:38.127Z,1.70
2023-05-15T22:18:08.152Z,1.90
2023-05-15T22:20:36.087Z,1.45
2023-05-15T22:23:02.935Z,2.15
2023-05-15T22:25:29.893Z,2.42
2023-05-15T22:27:56.892Z,1.77
2023-05-15T22:30:23.716Z,1.70
2023-05-15T22:32:50.561Z,2.42
2023-05-15T22:35:18.580Z,2.70
2023-05-15T22:37:45.540Z,2.95
2023-05-15T22:40:12.876Z,1.90
2023-05-15T22:42:39.711Z,2.53
2023-05-15T22:45:07.570Z,2.33
2023-05-15T22:47:34.477Z,3.40
2023-05-15T22:50:01.460Z,1.73
2023-05-15T22:52:28.467Z,2.70
2023-05-15T22:54:55.411Z,2.25
2023-05-15T22:57:23.235Z,2.72
2023-05-15T22:59:50.331Z,2.78
2023-05-15T23:02:17.266Z,2.20
2023-05-15T23:04:44.279Z,3.10
2023-05-15T23:07:11.166Z,2.75
2023-05-15T23:09:38.087Z,2.83
2023-05-15T23:12:05.468Z,2.53
2023-05-15T23:14:32.773Z,2.67
2023-05-15T23:16:59.680Z,2.75
2023-05-15T23:19:26.553Z,2.40
2023-05-15T23:21:53.660Z,3.85
2023-05-15T23:24:20.496Z,3.40
2023-05-15T23:26:48.025Z,3.05
2023-05-15T23:29:14.899Z,2.85
2023-05-15T23:31:43.270Z,3.38
2023-05-15T23:34:10.187Z,3.42
2023-05-15T23:36:37.019Z,3.25
2023-05-15T23:39:05.119Z,2.60
2023-05-15T23:41:31.937Z,2.40
2023-05-15T23:43:58.778Z,2.55
2023-05-15T23:46:25.704Z,3.25
2023-05-15T23:48:52.545Z,3.22
2023-05-15T23:51:20.571Z,5.55
2023-05-15T23:53:47.421Z,3.08
2023-05-15T23:56:14.249Z,3.38
2023-05-15T23:58:41.661Z,4.00
